sensor_id;sensor_type;location;lat;lon;timestamp;temperature;humidity
44277;DHT22;29973;43.742;1.236;2024-03-17T00:02:18;9.10;99.90
44277;DHT22;29973;43.742;1.236;2024-03-17T00:04:45;9.10;99.90
44277;DHT22;29973;43.742;1.236;2024-03-17T00:07:11;9.10;99.90
44277;DHT22;29973;43.742;1.236;2024-03-17T00:09:37;9.00;99.90
44277;DHT22;29973;43.742;1.236;2024-03-17T00:12:03;9.00;99.90
44277;DHT22;29973;43.742;1.236;2024-03-17T00:14:29;8.90;99.90
44277;DHT22;29973;43.742;1.236;2024-03-17T00:16:55;8.90;99.90
44277;DHT22;29973;43.742;1.236;2024-03-17T00:19:20;8.90;99.90
44277;DHT22;29973;43.742;1.236;2024-03-17T00:21:49;8.90;99.90
44277;DHT22;29973;43.742;1.236;2024-03-17T00:24:19;8.70;99.90
44277;DHT22;29973;43.742;1.236;2024-03-17T00:26:48;8.60;99.90
44277;DHT22;29973;43.742;1.236;2024-03-17T00:29:17;8.40;99.90
44277;DHT22;29973;43.742;1.236;2024-03-17T00:31:43;8.20;99.90
44277;DHT22;29973;43.742;1.236;2024-03-17T00:34:09;8.30;99.90
44277;DHT22;29973;43.742;1.236;2024-03-17T00:36:35;8.40;99.90
44277;DHT22;29973;43.742;1.236;2024-03-17T00:39:02;8.40;99.90
44277;DHT22;29973;43.742;1.236;2024-03-17T00:41:27;8.40;99.90
44277;DHT22;29973;43.742;1.236;2024-03-17T00:43:53;8.30;99.90
44277;DHT22;29973;43.742;1.236;2024-03-17T00:46:20;8.20;99.90
44277;DHT22;29973;43.742;1.236;2024-03-17T00:48:49;8.10;99.90
44277;DHT22;29973;43.742;1.236;2024-03-17T00:51:16;8.00;99.90
44277;DHT22;29973;43.742;1.236;2024-03-17T00:53:42;8.00;99.90
44277;DHT22;29973;43.742;1.236;2024-03-17T00:56:08;7.90;99.90
44277;DHT22;29973;43.742;1.236;2024-03-17T00:58:34;8.10;99.90
44277;DHT22;29973;43.742;1.236;2024-03-17T01:00:59;8.10;99.90
44277;DHT22;29973;43.742;1.236;2024-03-17T01:03:25;7.90;99.90
44277;DHT22;29973;43.742;1.236;2024-03-17T01:05:52;7.90;99.90
44277;DHT22;29973;43.742;1.236;2024-03-17T01:08:18;7.70;99.90
44277;DHT22;29973;43.742;1.236;2024-03-17T01:10:45;8.00;99.90
44277;DHT22;29973;43.742;1.236;2024-03-17T01:13:15;8.20;99.90
44277;DHT22;29973;43.742;1.236;2024-03-17T01:15:41;8.20;99.90
44277;DHT22;29973;43.742;1.236;2024-03-17T01:18:07;8.20;99.90
44277;DHT22;29973;43.742;1.236;2024-03-17T01:20:35;7.90;99.90
44277;DHT22;29973;43.742;1.236;2024-03-17T01:23:01;7.90;99.90
44277;DHT22;29973;43.742;1.236;2024-03-17T01:25:27;7.90;99.90
44277;DHT22;29973;43.742;1.236;2024-03-17T01:27:55;8.00;99.90
44277;DHT22;29973;43.742;1.236;2024-03-17T01:30:20;7.80;99.90
44277;DHT22;29973;43.742;1.236;2024-03-17T01:32:46;7.70;99.90
44277;DHT22;29973;43.742;1.236;2024-03-17T01:35:13;7.70;99.90
44277;DHT22;29973;43.742;1.236;2024-03-17T01:37:39;7.70;99.90
44277;DHT22;29973;43.742;1.236;2024-03-17T01:40:06;7.70;99.90
44277;DHT22;29973;43.742;1.236;2024-03-17T01:42:36;7.80;99.90
44277;DHT22;29973;43.742;1.236;2024-03-17T01:45:28;8.00;99.90
44277;DHT22;29973;43.742;1.236;2024-03-17T01:47:55;7.90;99.90
44277;DHT22;29973;43.742;1.236;2024-03-17T01:50:24;7.90;99.90
44277;DHT22;29973;43.742;1.236;2024-03-17T01:52:55;7.80;99.90
44277;DHT22;29973;43.742;1.236;2024-03-17T01:55:22;8.00;99.90
44277;DHT22;29973;43.742;1.236;2024-03-17T01:57:50;8.00;99.90
44277;DHT22;29973;43.742;1.236;2024-03-17T02:00:17;8.10;99.90
44277;DHT22;29973;43.742;1.236;2024-03-17T02:02:42;8.20;99.90
44277;DHT22;29973;43.742;1.236;2024-03-17T02:05:09;8.30;99.90
44277;DHT22;29973;43.742;1.236;2024-03-17T02:07:35;8.40;99.90
44277;DHT22;29973;43.742;1.236;2024-03-17T02:10:01;8.50;99.90
44277;DHT22;29973;43.742;1.236;2024-03-17T02:12:30;8.40;99.90
44277;DHT22;29973;43.742;1.236;2024-03-17T02:14:57;8.40;99.90
44277;DHT22;29973;43.742;1.236;2024-03-17T02:17:23;8.20;99.90
44277;DHT22;29973;43.742;1.236;2024-03-17T02:19:51;8.20;99.90
44277;DHT22;29973;43.742;1.236;2024-03-17T02:22:17;8.30;99.90
44277;DHT22;29973;43.742;1.236;2024-03-17T02:24:46;8.40;99.90
44277;DHT22;29973;43.742;1.236;2024-03-17T02:27:12;8.50;99.90
44277;DHT22;29973;43.742;1.236;2024-03-17T02:29:38;8.50;99.90
44277;DHT22;29973;43.742;1.236;2024-03-17T02:32:05;8.40;99.90
44277;DHT22;29973;43.742;1.236;2024-03-17T02:34:36;8.30;99.90
44277;DHT22;29973;43.742;1.236;2024-03-17T02:37:03;8.30;99.90
44277;DHT22;29973;43.742;1.236;2024-03-17T02:39:30;8.40;99.90
44277;DHT22;29973;43.742;1.236;2024-03-17T02:42:09;8.40;99.90
44277;DHT22;29973;43.742;1.236;2024-03-17T02:44:36;8.30;99.90
44277;DHT22;29973;43.742;1.236;2024-03-17T02:47:03;8.20;99.90
44277;DHT22;29973;43.742;1.236;2024-03-17T02:49:36;8.20;99.90
44277;DHT22;29973;43.742;1.236;2024-03-17T02:52:13;8.20;99.90
44277;DHT22;29973;43.742;1.236;2024-03-17T02:54:39;8.10;99.90
44277;DHT22;29973;43.742;1.236;2024-03-17T02:57:06;8.30;99.90
44277;DHT22;29973;43.742;1.236;2024-03-17T02:59:32;8.20;99.90
44277;DHT22;29973;43.742;1.236;2024-03-17T03:01:58;8.20;99.90
44277;DHT22;29973;43.742;1.236;2024-03-17T03:04:25;8.20;99.90
44277;DHT22;29973;43.742;1.236;2024-03-17T03:06:50;8.30;99.90
44277;DHT22;29973;43.742;1.236;2024-03-17T03:09:16;8.20;99.90
44277;DHT22;29973;43.742;1.236;2024-03-17T03:11:51;8.20;99.90
44277;DHT22;29973;43.742;1.236;2024-03-17T03:14:17;8.30;99.90
44277;DHT22;29973;43.742;1.236;2024-03-17T03:16:43;8.30;99.90
44277;DHT22;29973;43.742;1.236;2024-03-17T03:19:09;8.20;99.90
44277;DHT22;29973;43.742;1.236;2024-03-17T03:21:35;8.10;99.90
44277;DHT22;29973;43.742;1.236;2024-03-17T03:24:01;8.20;99.90
44277;DHT22;29973;43.742;1.236;2024-03-17T03:26:27;8.30;99.90
44277;DHT22;29973;43.742;1.236;2024-03-17T03:28:54;8.40;99.90
44277;DHT22;29973;43.742;1.236;2024-03-17T03:31:21;8.40;99.90
44277;DHT22;29973;43.742;1.236;2024-03-17T03:33:47;8.50;99.90
44277;DHT22;29973;43.742;1.236;2024-03-17T03:36:14;8.50;99.90
44277;DHT22;29973;43.742;1.236;2024-03-17T03:38:41;8.50;99.90
44277;DHT22;29973;43.742;1.236;2024-03-17T03:43:33;8.60;99.90
44277;DHT22;29973;43.742;1.236;2024-03-17T03:46:00;8.60;99.90
44277;DHT22;29973;43.742;1.236;2024-03-17T03:48:26;8.60;99.90
44277;DHT22;29973;43.742;1.236;2024-03-17T03:50:51;8.70;99.90
44277;DHT22;29973;43.742;1.236;2024-03-17T03:53:17;8.70;99.90
44277;DHT22;29973;43.742;1.236;2024-03-17T03:55:43;8.70;99.90
44277;DHT22;29973;43.742;1.236;2024-03-17T03:58:08;8.60;99.90
44277;DHT22;29973;43.742;1.236;2024-03-17T04:00:34;8.60;99.90
44277;DHT22;29973;43.742;1.236;2024-03-17T04:03:00;8.70;99.90
44277;DHT22;29973;43.742;1.236;2024-03-17T04:05:27;8.70;99.90
44277;DHT22;29973;43.742;1.236;2024-03-17T04:07:53;8.70;99.90
44277;DHT22;29973;43.742;1.236;2024-03-17T04:10:19;8.70;99.90
44277;DHT22;29973;43.742;1.236;2024-03-17T04:12:46;8.80;99.90
44277;DHT22;29973;43.742;1.236;2024-03-17T04:15:12;8.80;99.90
44277;DHT22;29973;43.742;1.236;2024-03-17T04:17:38;8.70;99.90
44277;DHT22;29973;43.742;1.236;2024-03-17T04:20:04;8.60;99.90
44277;DHT22;29973;43.742;1.236;2024-03-17T04:22:33;8.50;99.90
44277;DHT22;29973;43.742;1.236;2024-03-17T04:24:59;8.40;99.90
44277;DHT22;29973;43.742;1.236;2024-03-17T04:27:26;8.40;99.90
44277;DHT22;29973;43.742;1.236;2024-03-17T04:29:56;8.30;99.90
44277;DHT22;29973;43.742;1.236;2024-03-17T04:32:23;8.30;99.90
44277;DHT22;29973;43.742;1.236;2024-03-17T04:34:49;8.20;99.90
44277;DHT22;29973;43.742;1.236;2024-03-17T04:37:16;8.10;99.90
44277;DHT22;29973;43.742;1.236;2024-03-17T04:39:43;8.10;99.90
44277;DHT22;29973;43.742;1.236;2024-03-17T04:42:10;8.10;99.90
44277;DHT22;29973;43.742;1.236;2024-03-17T04:44:36;8.10;99.90
44277;DHT22;29973;43.742;1.236;2024-03-17T04:47:02;8.00;99.90
44277;DHT22;29973;43.742;1.236;2024-03-17T04:49:34;7.90;99.90
44277;DHT22;29973;43.742;1.236;2024-03-17T04:52:00;7.90;99.90
44277;DHT22;29973;43.742;1.236;2024-03-17T04:54:26;7.90;99.90
44277;DHT22;29973;43.742;1.236;2024-03-17T04:56:51;7.90;99.90
44277;DHT22;29973;43.742;1.236;2024-03-17T04:59:17;7.80;99.90
44277;DHT22;29973;43.742;1.236;2024-03-17T05:01:43;7.60;99.90
44277;DHT22;29973;43.742;1.236;2024-03-17T05:04:09;7.60;99.90
44277;DHT22;29973;43.742;1.236;2024-03-17T05:06:34;7.50;99.90
44277;DHT22;29973;43.742;1.236;2024-03-17T05:09:00;7.50;99.90
44277;DHT22;29973;43.742;1.236;2024-03-17T05:11:26;7.40;99.90
44277;DHT22;29973;43.742;1.236;2024-03-17T05:13:52;7.30;99.90
44277;DHT22;29973;43.742;1.236;2024-03-17T05:16:18;7.00;99.90
44277;DHT22;29973;43.742;1.236;2024-03-17T05:18:43;7.20;99.90
44277;DHT22;29973;43.742;1.236;2024-03-17T05:21:09;7.10;99.90
44277;DHT22;29973;43.742;1.236;2024-03-17T05:23:36;7.10;99.90
44277;DHT22;29973;43.742;1.236;2024-03-17T05:26:03;7.00;99.90
44277;DHT22;29973;43.742;1.236;2024-03-17T05:28:32;7.00;99.90
44277;DHT22;29973;43.742;1.236;2024-03-17T05:30:58;6.90;99.90
44277;DHT22;29973;43.742;1.236;2024-03-17T05:33:25;6.90;99.90
44277;DHT22;29973;43.742;1.236;2024-03-17T05:35:56;7.00;99.90
44277;DHT22;29973;43.742;1.236;2024-03-17T05:38:23;7.00;99.90
44277;DHT22;29973;43.742;1.236;2024-03-17T05:41:03;6.90;99.90
44277;DHT22;29973;43.742;1.236;2024-03-17T05:43:31;6.90;99.90
44277;DHT22;29973;43.742;1.236;2024-03-17T05:46:01;6.90;99.90
44277;DHT22;29973;43.742;1.236;2024-03-17T05:48:28;6.80;99.90
44277;DHT22;29973;43.742;1.236;2024-03-17T05:50:54;6.70;99.90
44277;DHT22;29973;43.742;1.236;2024-03-17T05:53:21;6.80;99.90
44277;DHT22;29973;43.742;1.236;2024-03-17T05:55:49;6.90;99.90
44277;DHT22;29973;43.742;1.236;2024-03-17T05:58:15;7.10;99.90
44277;DHT22;29973;43.742;1.236;2024-03-17T06:00:41;7.20;99.90
44277;DHT22;29973;43.742;1.236;2024-03-17T06:03:07;7.20;99.90
44277;DHT22;29973;43.742;1.236;2024-03-17T06:05:35;7.20;99.90
44277;DHT22;29973;43.742;1.236;2024-03-17T06:08:05;7.20;99.90
44277;DHT22;29973;43.742;1.236;2024-03-17T06:10:32;7.30;99.90
44277;DHT22;29973;43.742;1.236;2024-03-17T06:12:59;7.50;99.90
44277;DHT22;29973;43.742;1.236;2024-03-17T06:15:25;7.70;99.90
44277;DHT22;29973;43.742;1.236;2024-03-17T06:17:55;7.70;99.90
44277;DHT22;29973;43.742;1.236;2024-03-17T06:20:22;7.80;99.90
44277;DHT22;29973;43.742;1.236;2024-03-17T06:22:49;7.80;99.90
44277;DHT22;29973;43.742;1.236;2024-03-17T06:25:15;7.90;99.90
44277;DHT22;29973;43.742;1.236;2024-03-17T06:27:41;8.00;99.90
44277;DHT22;29973;43.742;1.236;2024-03-17T06:30:11;8.20;99.90
44277;DHT22;29973;43.742;1.236;2024-03-17T06:32:40;8.50;99.90
44277;DHT22;29973;43.742;1.236;2024-03-17T06:35:07;8.60;99.90
44277;DHT22;29973;43.742;1.236;2024-03-17T06:37:32;8.70;99.90
44277;DHT22;29973;43.742;1.236;2024-03-17T06:39:58;8.70;99.90
44277;DHT22;29973;43.742;1.236;2024-03-17T06:42:24;8.60;99.90
44277;DHT22;29973;43.742;1.236;2024-03-17T06:44:50;8.50;99.90
44277;DHT22;29973;43.742;1.236;2024-03-17T06:47:16;8.40;99.90
44277;DHT22;29973;43.742;1.236;2024-03-17T06:49:42;8.40;99.90
44277;DHT22;29973;43.742;1.236;2024-03-17T06:52:09;8.40;99.90
44277;DHT22;29973;43.742;1.236;2024-03-17T06:54:34;8.50;99.90
44277;DHT22;29973;43.742;1.236;2024-03-17T06:57:01;8.60;99.90
44277;DHT22;29973;43.742;1.236;2024-03-17T06:59:27;8.70;99.90
44277;DHT22;29973;43.742;1.236;2024-03-17T07:01:52;8.80;99.90
44277;DHT22;29973;43.742;1.236;2024-03-17T07:04:18;8.90;99.90
44277;DHT22;29973;43.742;1.236;2024-03-17T07:06:44;9.00;99.90
44277;DHT22;29973;43.742;1.236;2024-03-17T07:09:10;9.20;99.90
44277;DHT22;29973;43.742;1.236;2024-03-17T07:11:36;9.30;99.90
44277;DHT22;29973;43.742;1.236;2024-03-17T07:14:02;9.50;99.90
44277;DHT22;29973;43.742;1.236;2024-03-17T07:16:28;9.70;99.90
44277;DHT22;29973;43.742;1.236;2024-03-17T07:18:54;9.90;99.90
44277;DHT22;29973;43.742;1.236;2024-03-17T07:21:21;10.10;99.90
44277;DHT22;29973;43.742;1.236;2024-03-17T07:23:47;10.20;99.90
44277;DHT22;29973;43.742;1.236;2024-03-17T07:26:13;10.30;99.90
44277;DHT22;29973;43.742;1.236;2024-03-17T07:28:40;10.20;99.90
44277;DHT22;29973;43.742;1.236;2024-03-17T07:31:08;10.20;99.90
44277;DHT22;29973;43.742;1.236;2024-03-17T07:33:34;10.10;99.90
44277;DHT22;29973;43.742;1.236;2024-03-17T07:36:00;10.00;99.90
44277;DHT22;29973;43.742;1.236;2024-03-17T07:38:27;10.10;99.90
44277;DHT22;29973;43.742;1.236;2024-03-17T07:41:01;10.40;99.90
44277;DHT22;29973;43.742;1.236;2024-03-17T07:43:28;10.70;99.90
44277;DHT22;29973;43.742;1.236;2024-03-17T07:46:01;11.00;99.90
44277;DHT22;29973;43.742;1.236;2024-03-17T07:48:28;11.20;99.90
44277;DHT22;29973;43.742;1.236;2024-03-17T07:51:01;11.50;99.90
44277;DHT22;29973;43.742;1.236;2024-03-17T07:53:31;11.70;99.90
44277;DHT22;29973;43.742;1.236;2024-03-17T07:55:58;12.10;99.90
44277;DHT22;29973;43.742;1.236;2024-03-17T07:58:24;12.50;99.90
44277;DHT22;29973;43.742;1.236;2024-03-17T08:01:01;12.80;99.90
44277;DHT22;29973;43.742;1.236;2024-03-17T08:03:28;13.00;99.90
44277;DHT22;29973;43.742;1.236;2024-03-17T08:05:54;13.30;99.90
44277;DHT22;29973;43.742;1.236;2024-03-17T08:08:20;13.40;99.90
44277;DHT22;29973;43.742;1.236;2024-03-17T08:10:46;13.70;99.90
44277;DHT22;29973;43.742;1.236;2024-03-17T08:13:17;13.80;99.90
44277;DHT22;29973;43.742;1.236;2024-03-17T08:15:43;13.80;99.90
44277;DHT22;29973;43.742;1.236;2024-03-17T08:18:10;14.00;99.90
44277;DHT22;29973;43.742;1.236;2024-03-17T08:20:41;14.20;99.90
44277;DHT22;29973;43.742;1.236;2024-03-17T08:23:07;14.20;99.90
44277;DHT22;29973;43.742;1.236;2024-03-17T08:25:34;14.40;99.90
44277;DHT22;29973;43.742;1.236;2024-03-17T08:28:00;14.60;99.90
44277;DHT22;29973;43.742;1.236;2024-03-17T08:30:26;14.70;99.90
44277;DHT22;29973;43.742;1.236;2024-03-17T08:32:52;14.80;99.90
44277;DHT22;29973;43.742;1.236;2024-03-17T08:35:18;14.90;99.90
44277;DHT22;29973;43.742;1.236;2024-03-17T08:37:44;15.00;99.90
44277;DHT22;29973;43.742;1.236;2024-03-17T08:40:11;15.20;99.90
44277;DHT22;29973;43.742;1.236;2024-03-17T08:42:37;15.30;99.90
44277;DHT22;29973;43.742;1.236;2024-03-17T08:45:03;15.40;99.90
44277;DHT22;29973;43.742;1.236;2024-03-17T08:47:29;15.50;99.90
44277;DHT22;29973;43.742;1.236;2024-03-17T08:49:55;15.70;99.90
44277;DHT22;29973;43.742;1.236;2024-03-17T08:52:21;15.80;99.90
44277;DHT22;29973;43.742;1.236;2024-03-17T08:54:49;16.00;99.90
44277;DHT22;29973;43.742;1.236;2024-03-17T08:57:18;16.10;99.90
44277;DHT22;29973;43.742;1.236;2024-03-17T08:59:47;16.10;99.90
44277;DHT22;29973;43.742;1.236;2024-03-17T09:02:14;15.90;99.90
44277;DHT22;29973;43.742;1.236;2024-03-17T09:04:41;16.00;99.90
44277;DHT22;29973;43.742;1.236;2024-03-17T09:07:06;16.30;99.90
44277;DHT22;29973;43.742;1.236;2024-03-17T09:09:32;16.50;99.90
44277;DHT22;29973;43.742;1.236;2024-03-17T09:11:58;16.40;99.90
44277;DHT22;29973;43.742;1.236;2024-03-17T09:14:24;16.50;99.90
44277;DHT22;29973;43.742;1.236;2024-03-17T09:16:50;16.60;99.90
44277;DHT22;29973;43.742;1.236;2024-03-17T09:19:16;16.80;99.90
44277;DHT22;29973;43.742;1.236;2024-03-17T09:21:41;16.90;99.90
44277;DHT22;29973;43.742;1.236;2024-03-17T09:24:08;17.10;99.90
44277;DHT22;29973;43.742;1.236;2024-03-17T09:26:34;17.30;99.90
44277;DHT22;29973;43.742;1.236;2024-03-17T09:29:01;16.90;99.90
44277;DHT22;29973;43.742;1.236;2024-03-17T09:31:26;16.90;99.90
44277;DHT22;29973;43.742;1.236;2024-03-17T09:33:52;17.10;99.90
44277;DHT22;29973;43.742;1.236;2024-03-17T09:36:18;17.40;99.90
44277;DHT22;29973;43.742;1.236;2024-03-17T09:38:44;18.00;99.90
44277;DHT22;29973;43.742;1.236;2024-03-17T09:41:22;18.00;99.90
44277;DHT22;29973;43.742;1.236;2024-03-17T09:43:51;18.10;99.90
44277;DHT22;29973;43.742;1.236;2024-03-17T09:46:19;18.40;99.90
44277;DHT22;29973;43.742;1.236;2024-03-17T09:48:45;18.70;99.90
44277;DHT22;29973;43.742;1.236;2024-03-17T09:51:22;19.00;99.90
44277;DHT22;29973;43.742;1.236;2024-03-17T09:53:48;19.20;97.90
44277;DHT22;29973;43.742;1.236;2024-03-17T09:56:16;19.10;98.10
44277;DHT22;29973;43.742;1.236;2024-03-17T09:58:45;19.30;97.60
44277;DHT22;29973;43.742;1.236;2024-03-17T10:01:11;18.90;95.70
44277;DHT22;29973;43.742;1.236;2024-03-17T10:03:46;18.90;94.30
44277;DHT22;29973;43.742;1.236;2024-03-17T10:06:21;19.40;95.90
44277;DHT22;29973;43.742;1.236;2024-03-17T10:08:49;20.10;95.80
44277;DHT22;29973;43.742;1.236;2024-03-17T10:11:20;20.10;91.60
44277;DHT22;29973;43.742;1.236;2024-03-17T10:13:59;19.60;93.10
44277;DHT22;29973;43.742;1.236;2024-03-17T10:16:27;20.50;95.50
44277;DHT22;29973;43.742;1.236;2024-03-17T10:19:11;20.50;90.40
44277;DHT22;29973;43.742;1.236;2024-03-17T10:21:40;20.60;94.00
44277;DHT22;29973;43.742;1.236;2024-03-17T10:24:10;20.40;92.20
44277;DHT22;29973;43.742;1.236;2024-03-17T10:29:28;21.90;90.90
44277;DHT22;29973;43.742;1.236;2024-03-17T10:32:02;21.90;80.70
44277;DHT22;29973;43.742;1.236;2024-03-17T10:34:29;23.20;76.90
44277;DHT22;29973;43.742;1.236;2024-03-17T10:37:19;23.40;75.40
44277;DHT22;29973;43.742;1.236;2024-03-17T10:39:46;24.40;72.10
44277;DHT22;29973;43.742;1.236;2024-03-17T10:42:24;25.70;65.70
44277;DHT22;29973;43.742;1.236;2024-03-17T10:44:50;25.80;63.50
44277;DHT22;29973;43.742;1.236;2024-03-17T10:49:45;27.00;59.30
44277;DHT22;29973;43.742;1.236;2024-03-17T10:52:18;26.70;60.30
44277;DHT22;29973;43.742;1.236;2024-03-17T10:54:49;27.00;56.10
44277;DHT22;29973;43.742;1.236;2024-03-17T11:00:12;26.30;59.60
44277;DHT22;29973;43.742;1.236;2024-03-17T11:02:46;26.50;59.70
44277;DHT22;29973;43.742;1.236;2024-03-17T11:05:18;27.20;58.50
44277;DHT22;29973;43.742;1.236;2024-03-17T11:07:45;27.50;57.40
44277;DHT22;29973;43.742;1.236;2024-03-17T11:10:30;27.20;59.20
44277;DHT22;29973;43.742;1.236;2024-03-17T11:13:00;27.10;59.10
44277;DHT22;29973;43.742;1.236;2024-03-17T11:20:57;28.20;55.10
44277;DHT22;29973;43.742;1.236;2024-03-17T11:23:27;28.30;55.70
44277;DHT22;29973;43.742;1.236;2024-03-17T11:25:54;29.80;53.80
44277;DHT22;29973;43.742;1.236;2024-03-17T11:34:04;29.70;51.80
44277;DHT22;29973;43.742;1.236;2024-03-17T11:36:36;28.70;53.00
44277;DHT22;29973;43.742;1.236;2024-03-17T11:39:09;28.80;51.60
44277;DHT22;29973;43.742;1.236;2024-03-17T11:41:49;27.50;53.80
44277;DHT22;29973;43.742;1.236;2024-03-17T11:46:57;25.30;58.40
44277;DHT22;29973;43.742;1.236;2024-03-17T11:49:28;25.60;62.60
44277;DHT22;29973;43.742;1.236;2024-03-17T11:52:02;28.50;55.00
44277;DHT22;29973;43.742;1.236;2024-03-17T11:54:35;29.20;52.80
44277;DHT22;29973;43.742;1.236;2024-03-17T11:57:03;29.00;49.40
44277;DHT22;29973;43.742;1.236;2024-03-17T11:59:30;31.20;45.80
44277;DHT22;29973;43.742;1.236;2024-03-17T12:01:56;31.50;44.30
44277;DHT22;29973;43.742;1.236;2024-03-17T12:04:23;29.30;49.00
44277;DHT22;29973;43.742;1.236;2024-03-17T12:06:58;28.90;49.40
44277;DHT22;29973;43.742;1.236;2024-03-17T12:09:31;28.90;51.20
44277;DHT22;29973;43.742;1.236;2024-03-17T12:12:16;28.50;52.00
44277;DHT22;29973;43.742;1.236;2024-03-17T12:14:42;29.00;52.90
44277;DHT22;29973;43.742;1.236;2024-03-17T12:17:09;29.90;46.50
44277;DHT22;29973;43.742;1.236;2024-03-17T12:19:36;29.00;48.30
44277;DHT22;29973;43.742;1.236;2024-03-17T12:22:04;28.30;47.60
44277;DHT22;29973;43.742;1.236;2024-03-17T12:24:34;28.80;48.30
44277;DHT22;29973;43.742;1.236;2024-03-17T12:27:01;29.50;46.90
44277;DHT22;29973;43.742;1.236;2024-03-17T12:29:30;31.70;45.70
44277;DHT22;29973;43.742;1.236;2024-03-17T12:32:00;30.90;43.70
44277;DHT22;29973;43.742;1.236;2024-03-17T12:34:30;31.30;43.00
44277;DHT22;29973;43.742;1.236;2024-03-17T12:36:57;29.40;45.40
44277;DHT22;29973;43.742;1.236;2024-03-17T12:39:34;27.70;50.80
44277;DHT22;29973;43.742;1.236;2024-03-17T12:44:33;27.00;50.10
44277;DHT22;29973;43.742;1.236;2024-03-17T12:47:03;28.20;47.60
44277;DHT22;29973;43.742;1.236;2024-03-17T12:49:31;30.60;40.80
44277;DHT22;29973;43.742;1.236;2024-03-17T12:51:57;32.00;42.10
44277;DHT22;29973;43.742;1.236;2024-03-17T12:54:27;33.70;36.40
44277;DHT22;29973;43.742;1.236;2024-03-17T12:57:07;28.70;42.60
44277;DHT22;29973;43.742;1.236;2024-03-17T12:59:52;28.70;45.10
44277;DHT22;29973;43.742;1.236;2024-03-17T13:02:43;28.80;45.70
44277;DHT22;29973;43.742;1.236;2024-03-17T13:05:17;28.20;46.10
44277;DHT22;29973;43.742;1.236;2024-03-17T13:07:44;29.20;44.80
44277;DHT22;29973;43.742;1.236;2024-03-17T13:10:15;29.10;43.60
44277;DHT22;29973;43.742;1.236;2024-03-17T13:12:43;29.00;45.80
44277;DHT22;29973;43.742;1.236;2024-03-17T13:15:13;29.60;45.80
44277;DHT22;29973;43.742;1.236;2024-03-17T13:17:41;28.30;43.90
44277;DHT22;29973;43.742;1.236;2024-03-17T13:20:11;28.80;43.50
44277;DHT22;29973;43.742;1.236;2024-03-17T13:22:38;27.60;44.80
44277;DHT22;29973;43.742;1.236;2024-03-17T13:25:09;26.50;47.40
44277;DHT22;29973;43.742;1.236;2024-03-17T13:27:37;26.00;49.20
44277;DHT22;29973;43.742;1.236;2024-03-17T13:30:02;26.60;48.30
44277;DHT22;29973;43.742;1.236;2024-03-17T13:32:28;28.00;46.90
44277;DHT22;29973;43.742;1.236;2024-03-17T13:34:54;30.90;39.90
44277;DHT22;29973;43.742;1.236;2024-03-17T13:37:20;31.50;38.50
44277;DHT22;29973;43.742;1.236;2024-03-17T13:39:47;31.40;40.90
44277;DHT22;29973;43.742;1.236;2024-03-17T13:42:13;29.80;42.10
44277;DHT22;29973;43.742;1.236;2024-03-17T13:44:38;29.20;42.90
44277;DHT22;29973;43.742;1.236;2024-03-17T13:47:04;28.10;46.40
44277;DHT22;29973;43.742;1.236;2024-03-17T13:49:30;28.20;49.00
44277;DHT22;29973;43.742;1.236;2024-03-17T13:51:56;28.30;47.10
44277;DHT22;29973;43.742;1.236;2024-03-17T13:54:22;26.90;44.70
44277;DHT22;29973;43.742;1.236;2024-03-17T13:56:48;29.20;45.90
44277;DHT22;29973;43.742;1.236;2024-03-17T13:59:15;29.20;47.10
44277;DHT22;29973;43.742;1.236;2024-03-17T14:01:42;28.10;47.10
44277;DHT22;29973;43.742;1.236;2024-03-17T14:04:16;30.00;43.00
44277;DHT22;29973;43.742;1.236;2024-03-17T14:06:44;29.60;42.70
44277;DHT22;29973;43.742;1.236;2024-03-17T14:09:17;26.70;48.60
44277;DHT22;29973;43.742;1.236;2024-03-17T14:11:46;27.30;47.30
44277;DHT22;29973;43.742;1.236;2024-03-17T14:14:12;27.50;47.80
44277;DHT22;29973;43.742;1.236;2024-03-17T14:16:38;27.90;47.40
44277;DHT22;29973;43.742;1.236;2024-03-17T14:19:06;29.70;45.20
44277;DHT22;29973;43.742;1.236;2024-03-17T14:21:31;29.50;42.60
44277;DHT22;29973;43.742;1.236;2024-03-17T14:23:57;29.60;43.20
44277;DHT22;29973;43.742;1.236;2024-03-17T14:26:23;30.20;40.20
44277;DHT22;29973;43.742;1.236;2024-03-17T14:28:49;31.20;40.00
44277;DHT22;29973;43.742;1.236;2024-03-17T14:31:20;29.90;45.10
44277;DHT22;29973;43.742;1.236;2024-03-17T14:33:45;28.30;44.00
44277;DHT22;29973;43.742;1.236;2024-03-17T14:36:11;26.10;50.90
44277;DHT22;29973;43.742;1.236;2024-03-17T14:38:37;25.30;51.60
44277;DHT22;29973;43.742;1.236;2024-03-17T14:41:03;25.70;50.00
44277;DHT22;29973;43.742;1.236;2024-03-17T14:43:30;26.00;49.90
44277;DHT22;29973;43.742;1.236;2024-03-17T14:45:56;26.10;50.70
44277;DHT22;29973;43.742;1.236;2024-03-17T14:48:22;26.20;48.40
44277;DHT22;29973;43.742;1.236;2024-03-17T14:50:49;25.10;52.30
44277;DHT22;29973;43.742;1.236;2024-03-17T14:53:14;25.60;54.30
44277;DHT22;29973;43.742;1.236;2024-03-17T14:55:42;28.40;45.80
44277;DHT22;29973;43.742;1.236;2024-03-17T14:58:08;29.80;46.10
44277;DHT22;29973;43.742;1.236;2024-03-17T15:00:35;30.40;42.80
44277;DHT22;29973;43.742;1.236;2024-03-17T15:03:01;31.40;42.80
44277;DHT22;29973;43.742;1.236;2024-03-17T15:05:27;31.80;40.00
44277;DHT22;29973;43.742;1.236;2024-03-17T15:07:52;31.80;38.50
44277;DHT22;29973;43.742;1.236;2024-03-17T15:10:19;30.90;39.50
44277;DHT22;29973;43.742;1.236;2024-03-17T15:12:47;29.80;41.50
44277;DHT22;29973;43.742;1.236;2024-03-17T15:15:13;29.00;45.10
44277;DHT22;29973;43.742;1.236;2024-03-17T15:17:39;28.60;44.40
44277;DHT22;29973;43.742;1.236;2024-03-17T15:20:06;28.00;46.40
44277;DHT22;29973;43.742;1.236;2024-03-17T15:22:52;28.10;45.70
44277;DHT22;29973;43.742;1.236;2024-03-17T15:25:18;26.90;46.30
44277;DHT22;29973;43.742;1.236;2024-03-17T15:27:46;26.70;47.40
44277;DHT22;29973;43.742;1.236;2024-03-17T15:30:13;25.90;49.40
44277;DHT22;29973;43.742;1.236;2024-03-17T15:32:43;25.50;51.90
44277;DHT22;29973;43.742;1.236;2024-03-17T15:35:10;25.50;50.70
44277;DHT22;29973;43.742;1.236;2024-03-17T15:37:36;26.00;52.60
44277;DHT22;29973;43.742;1.236;2024-03-17T15:40:02;26.40;51.70
44277;DHT22;29973;43.742;1.236;2024-03-17T15:42:28;26.00;51.20
44277;DHT22;29973;43.742;1.236;2024-03-17T15:44:54;25.60;55.10
44277;DHT22;29973;43.742;1.236;2024-03-17T15:47:19;25.30;51.60
44277;DHT22;29973;43.742;1.236;2024-03-17T15:49:46;25.00;53.80
44277;DHT22;29973;43.742;1.236;2024-03-17T15:52:11;24.60;54.80
44277;DHT22;29973;43.742;1.236;2024-03-17T15:54:37;24.60;53.90
44277;DHT22;29973;43.742;1.236;2024-03-17T15:57:03;24.80;52.70
44277;DHT22;29973;43.742;1.236;2024-03-17T15:59:29;24.80;53.30
44277;DHT22;29973;43.742;1.236;2024-03-17T16:01:55;24.70;54.10
44277;DHT22;29973;43.742;1.236;2024-03-17T16:04:22;24.90;53.00
44277;DHT22;29973;43.742;1.236;2024-03-17T16:06:51;25.20;52.80
44277;DHT22;29973;43.742;1.236;2024-03-17T16:09:17;25.20;54.80